createdAt,value
2023-07-24T00:02:19.400Z,16.47
2023-07-24T00:04:45.720Z,16.49
2023-07-24T00:07:12.068Z,16.64
2023-07-24T00:09:38.443Z,16.57
2023-07-24T00:12:05.128Z,16.56
2023-07-24T00:14:31.808Z,16.52
2023-07-24T00:16:58.170Z,16.50
2023-07-24T00:19:24.555Z,16.49
2023-07-24T00:21:50.905Z,16.51
2023-07-24T00:24:18.248Z,16.57
2023-07-24T00:26:44.688Z,16.56
2023-07-24T00:29:11.010Z,16.58
2023-07-24T00:31:37.404Z,16.53
2023-07-24T00:34:03.865Z,16.54
2023-07-24T00:36:30.303Z,16.53
2023-07-24T00:38:56.803Z,16.50
2023-07-24T00:41:23.275Z,16.53
2023-07-24T00:43:49.663Z,16.57
2023-07-24T00:46:16.116Z,16.60
2023-07-24T00:48:42.527Z,16.48
2023-07-24T00:51:08.930Z,16.41
2023-07-24T00:53:35.431Z,16.44
2023-07-24T00:56:02.460Z,16.36
2023-07-24T00:58:29.193Z,16.35
2023-07-24T01:00:55.543Z,16.25
2023-07-24T01:03:28.228Z,16.26
2023-07-24T01:05:56.072Z,16.31
2023-07-24T01:08:22.422Z,16.38
2023-07-24T01:10:49.016Z,16.25
2023-07-24T01:13:26.045Z,16.40
2023-07-24T01:15:57.752Z,16.34
2023-07-24T01:18:25.918Z,16.39
2023-07-24T01:20:56.476Z,16.51
2023-07-24T01:23:54.708Z,16.59
2023-07-24T01:26:22.219Z,16.57
2023-07-24T01:28:48.609Z,16.57
2023-07-24T01:31:15.032Z,16.58
2023-07-24T01:33:41.692Z,16.69
2023-07-24T01:36:08.676Z,16.73
2023-07-24T01:38:36.283Z,16.77
2023-07-24T01:41:03.779Z,16.79
2023-07-24T01:43:31.134Z,16.80
2023-07-24T01:45:57.804Z,16.82
2023-07-24T01:48:24.257Z,16.84
2023-07-24T01:50:51.336Z,16.79
2023-07-24T01:53:17.760Z,16.69
2023-07-24T01:55:44.387Z,16.70
2023-07-24T01:58:11.056Z,16.75
2023-07-24T02:00:37.428Z,16.81
2023-07-24T02:03:03.933Z,16.86
2023-07-24T02:05:30.825Z,16.97
2023-07-24T02:07:57.295Z,16.94
2023-07-24T02:10:23.928Z,16.95
2023-07-24T02:12:50.485Z,16.86
2023-07-24T02:15:17.148Z,16.94
2023-07-24T02:17:43.573Z,17.04
2023-07-24T02:20:10.214Z,17.08
2023-07-24T02:22:36.612Z,17.01
2023-07-24T02:25:03.279Z,17.02
2023-07-24T02:27:35.394Z,16.93
2023-07-24T02:30:03.149Z,16.98
2023-07-24T02:32:29.750Z,16.93
2023-07-24T02:34:56.577Z,16.88
2023-07-24T02:37:23.151Z,16.80
2023-07-24T02:39:49.509Z,16.79
2023-07-24T02:42:15.861Z,16.80
2023-07-24T02:44:42.477Z,16.75
2023-07-24T02:47:08.888Z,16.79
2023-07-24T02:49:35.613Z,16.80
2023-07-24T02:52:02.174Z,16.75
2023-07-24T02:54:28.789Z,16.87
2023-07-24T02:56:55.217Z,16.71
2023-07-24T02:59:21.715Z,16.74
2023-07-24T03:01:48.093Z,16.73
2023-07-24T03:04:14.544Z,16.74
2023-07-24T03:06:41.605Z,16.69
2023-07-24T03:09:08.560Z,16.66
2023-07-24T03:11:35.162Z,16.63
2023-07-24T03:14:01.544Z,16.71
2023-07-24T03:16:28.248Z,16.64
2023-07-24T03:18:54.891Z,16.64
2023-07-24T03:21:22.409Z,16.61
2023-07-24T03:23:48.942Z,16.71
2023-07-24T03:26:15.516Z,16.74
2023-07-24T03:28:42.245Z,16.75
2023-07-24T03:31:08.907Z,16.78
2023-07-24T03:33:35.497Z,16.76
2023-07-24T03:36:01.842Z,16.74
2023-07-24T03:38:28.193Z,16.76
2023-07-24T03:40:54.574Z,16.69
2023-07-24T03:43:21.025Z,16.73
2023-07-24T03:45:47.409Z,16.80
2023-07-24T03:48:13.998Z,16.78
2023-07-24T03:50:41.965Z,16.75
2023-07-24T03:53:08.431Z,16.88
2023-07-24T03:55:34.907Z,16.77
2023-07-24T03:58:01.262Z,16.82
2023-07-24T04:00:27.698Z,16.84
2023-07-24T04:02:54.204Z,16.88
2023-07-24T04:05:20.759Z,16.84
2023-07-24T04:07:47.097Z,16.92
2023-07-24T04:10:13.524Z,16.94
2023-07-24T04:12:40.013Z,16.98
2023-07-24T04:15:07.282Z,16.95
2023-07-24T04:17:33.877Z,16.94
2023-07-24T04:20:01.321Z,17.04
2023-07-24T04:22:27.667Z,17.10
2023-07-24T04:24:54.349Z,17.06
2023-07-24T04:27:21.005Z,17.03
2023-07-24T04:29:47.361Z,17.03
2023-07-24T04:32:13.756Z,16.92
2023-07-24T04:34:40.416Z,16.87
2023-07-24T04:37:07.061Z,16.92
2023-07-24T04:39:34.476Z,17.01
2023-07-24T04:42:01.141Z,17.05
2023-07-24T04:44:27.861Z,17.06
2023-07-24T04:46:54.304Z,16.99
2023-07-24T04:49:20.809Z,17.07
2023-07-24T04:51:47.209Z,17.03
2023-07-24T04:54:13.576Z,17.08
2023-07-24T04:56:40.221Z,17.06
2023-07-24T04:59:06.771Z,17.05
2023-07-24T05:01:33.422Z,17.03
2023-07-24T05:03:59.818Z,17.17
2023-07-24T05:06:27.264Z,17.28
2023-07-24T05:08:54.327Z,17.31
2023-07-24T05:11:20.712Z,17.37
2023-07-24T05:13:47.107Z,17.37
2023-07-24T05:16:13.739Z,17.36
2023-07-24T05:18:40.925Z,17.29
2023-07-24T05:21:07.803Z,17.30
2023-07-24T05:23:34.215Z,17.40
2023-07-24T05:26:04.670Z,17.38
2023-07-24T05:28:32.907Z,17.30
2023-07-24T05:31:03.902Z,17.39
2023-07-24T05:33:30.992Z,17.53
2023-07-24T05:36:04.729Z,17.63
2023-07-24T05:38:31.810Z,17.62
2023-07-24T05:40:59.067Z,17.62
2023-07-24T05:43:25.847Z,17.56
2023-07-24T05:45:52.897Z,17.62
2023-07-24T05:48:19.571Z,17.64
2023-07-24T05:50:46.066Z,17.71
2023-07-24T05:53:12.553Z,17.76
2023-07-24T05:55:38.933Z,17.65
2023-07-24T05:58:05.341Z,17.60
2023-07-24T06:00:31.879Z,17.69
2023-07-24T06:02:58.704Z,17.66
2023-07-24T06:05:25.125Z,17.61
2023-07-24T06:07:51.463Z,17.68
2023-07-24T06:10:18.048Z,17.63
2023-07-24T06:12:44.443Z,17.60
2023-07-24T06:15:11.194Z,17.67
2023-07-24T06:17:37.626Z,17.73
2023-07-24T06:20:04.314Z,17.72
2023-07-24T06:22:30.814Z,17.71
2023-07-24T06:24:57.429Z,17.73
2023-07-24T06:27:23.887Z,17.67
2023-07-24T06:29:53.351Z,17.68
2023-07-24T06:32:22.267Z,17.65
2023-07-24T06:34:48.636Z,17.79
2023-07-24T06:37:22.115Z,17.82
2023-07-24T06:39:49.543Z,17.83
2023-07-24T06:42:15.903Z,17.92
2023-07-24T06:44:42.233Z,17.98
2023-07-24T06:47:08.846Z,18.09
2023-07-24T06:49:35.229Z,18.19
2023-07-24T06:52:01.724Z,18.33
2023-07-24T06:54:28.442Z,18.28
2023-07-24T06:56:54.943Z,18.28
2023-07-24T06:59:21.295Z,18.27
2023-07-24T07:01:47.895Z,18.18
2023-07-24T07:04:14.238Z,18.32
2023-07-24T07:06:40.620Z,18.32
2023-07-24T07:09:07.689Z,18.47
2023-07-24T07:11:34.105Z,18.56
2023-07-24T07:14:00.526Z,18.50
2023-07-24T07:16:26.953Z,18.50
2023-07-24T07:18:53.337Z,18.48
2023-07-24T07:21:19.666Z,18.52
2023-07-24T07:23:47.571Z,18.54
2023-07-24T07:26:14.095Z,18.54
2023-07-24T07:28:40.732Z,18.62
2023-07-24T07:31:07.132Z,18.65
2023-07-24T07:33:33.564Z,18.62
2023-07-24T07:36:00.018Z,18.66
2023-07-24T07:38:26.363Z,18.50
2023-07-24T07:40:52.989Z,18.43
2023-07-24T07:43:19.576Z,18.45
2023-07-24T07:45:46.233Z,18.39
2023-07-24T07:48:12.836Z,18.43
2023-07-24T07:50:39.533Z,18.36
2023-07-24T07:53:07.056Z,18.32
2023-07-24T07:55:33.551Z,18.40
2023-07-24T07:58:00.194Z,18.49
2023-07-24T08:00:26.780Z,18.47
2023-07-24T08:02:53.392Z,18.53
2023-07-24T08:05:21.525Z,18.58
2023-07-24T08:07:48.281Z,18.74
2023-07-24T08:10:17.907Z,18.96
2023-07-24T08:12:45.238Z,18.72
2023-07-24T08:15:11.924Z,18.85
2023-07-24T08:17:39.003Z,18.81
2023-07-24T08:20:06.375Z,18.75
2023-07-24T08:22:32.779Z,18.85
2023-07-24T08:24:59.392Z,18.94
2023-07-24T08:27:26.023Z,19.01
2023-07-24T08:29:53.866Z,18.94
2023-07-24T08:32:21.097Z,18.95
2023-07-24T08:34:47.557Z,19.11
2023-07-24T08:37:14.045Z,19.28
2023-07-24T08:39:40.636Z,19.23
2023-07-24T08:42:12.160Z,19.15
2023-07-24T08:44:39.113Z,19.21
2023-07-24T08:47:07.533Z,19.19
2023-07-24T08:49:35.921Z,19.09
2023-07-24T08:52:02.655Z,19.01
2023-07-24T08:54:31.451Z,19.00
2023-07-24T08:56:57.841Z,19.04
2023-07-24T08:59:25.478Z,18.94
2023-07-24T09:01:53.073Z,18.99
2023-07-24T09:04:19.588Z,19.01
2023-07-24T09:06:46.578Z,19.23
2023-07-24T09:09:18.162Z,19.40
2023-07-24T09:11:55.126Z,19.22
2023-07-24T09:14:28.139Z,19.35
2023-07-24T09:17:08.797Z,19.52
2023-07-24T09:19:35.626Z,19.50
2023-07-24T09:22:15.884Z,19.41
2023-07-24T09:24:53.114Z,19.71
2023-07-24T09:27:20.434Z,19.91
2023-07-24T09:29:47.162Z,19.78
2023-07-24T09:32:35.223Z,19.51
2023-07-24T09:35:02.801Z,19.42
2023-07-24T09:37:33.464Z,19.28
2023-07-24T09:40:00.576Z,19.31
2023-07-24T09:42:34.816Z,19.46
2023-07-24T09:45:02.855Z,19.58
2023-07-24T09:47:52.516Z,19.52
2023-07-24T09:50:16.353Z,19.65
2023-07-24T09:52:44.202Z,19.96
2023-07-24T09:55:20.679Z,20.17
2023-07-24T09:57:48.103Z,20.12
2023-07-24T10:00:15.265Z,20.17
2023-07-24T10:02:43.108Z,20.14
2023-07-24T10:05:09.745Z,20.09
2023-07-24T10:07:36.919Z,20.26
2023-07-24T10:10:03.581Z,20.53
2023-07-24T10:12:32.677Z,20.51
2023-07-24T10:15:00.737Z,20.62
2023-07-24T10:17:38.101Z,20.51
2023-07-24T10:20:06.461Z,20.39
2023-07-24T10:22:33.174Z,20.23
2023-07-24T10:24:59.958Z,20.35
2023-07-24T10:27:27.392Z,20.39
2023-07-24T10:30:18.751Z,20.52
2023-07-24T10:32:55.901Z,20.50
2023-07-24T10:35:24.514Z,20.38
2023-07-24T10:38:01.318Z,20.23
2023-07-24T10:40:28.044Z,20.29
2023-07-24T10:43:11.840Z,20.08
2023-07-24T10:45:53.685Z,20.08
2023-07-24T10:48:22.530Z,20.29
2023-07-24T10:50:54.009Z,20.30
2023-07-24T10:53:22.765Z,20.14
2023-07-24T10:55:49.496Z,20.12
2023-07-24T10:58:15.934Z,20.20
2023-07-24T11:00:46.140Z,20.24
2023-07-24T11:03:13.884Z,20.25
2023-07-24T11:05:45.196Z,20.35
2023-07-24T11:08:21.112Z,20.61
2023-07-24T11:10:49.315Z,20.74
2023-07-24T11:13:20.299Z,20.77
2023-07-24T11:15:47.266Z,20.65
2023-07-24T11:18:14.336Z,20.60
2023-07-24T11:20:54.697Z,20.78
2023-07-24T11:23:21.225Z,20.80
2023-07-24T11:25:48.508Z,20.63
2023-07-24T11:28:15.730Z,20.65
2023-07-24T11:30:43.282Z,20.88
2023-07-24T11:33:14.361Z,21.17
2023-07-24T11:35:42.157Z,21.36
2023-07-24T11:38:10.686Z,21.33
2023-07-24T11:40:45.200Z,21.19
2023-07-24T11:43:23.415Z,21.20
2023-07-24T11:45:53.664Z,21.31
2023-07-24T11:48:21.908Z,21.45
2023-07-24T11:50:49.840Z,21.27
2023-07-24T11:53:26.979Z,21.23
2023-07-24T11:55:55.467Z,21.09
2023-07-24T11:58:22.519Z,21.20
2023-07-24T12:00:50.010Z,21.08
2023-07-24T12:03:27.580Z,21.05
2023-07-24T12:05:54.793Z,20.97
2023-07-24T12:08:24.957Z,21.17
2023-07-24T12:10:51.711Z,21.30
2023-07-24T12:13:20.040Z,21.36
2023-07-24T12:15:48.664Z,21.38
2023-07-24T12:18:16.383Z,21.63
2023-07-24T12:20:42.809Z,22.00
2023-07-24T12:23:09.355Z,22.02
2023-07-24T12:25:35.857Z,22.22
2023-07-24T12:28:02.525Z,21.98
2023-07-24T12:30:29.124Z,21.98
2023-07-24T12:32:55.540Z,22.24
2023-07-24T12:35:21.940Z,22.48
2023-07-24T12:37:48.367Z,22.84
2023-07-24T12:40:15.119Z,22.89
2023-07-24T12:42:41.713Z,22.91
2023-07-24T12:45:08.377Z,23.18
2023-07-24T12:47:34.875Z,23.03
2023-07-24T12:50:01.806Z,23.28
2023-07-24T12:52:30.259Z,23.25
2023-07-24T12:55:02.097Z,23.28
2023-07-24T12:57:29.913Z,23.14
2023-07-24T12:59:56.650Z,22.98
2023-07-24T13:02:23.074Z,22.70
2023-07-24T13:04:49.676Z,22.50
2023-07-24T13:07:16.474Z,22.54
2023-07-24T13:09:43.135Z,22.62
2023-07-24T13:12:10.256Z,22.88
2023-07-24T13:14:38.524Z,23.08
2023-07-24T13:17:07.006Z,23.18
2023-07-24T13:19:33.531Z,23.10
2023-07-24T13:22:00.242Z,23.25
2023-07-24T13:24:26.846Z,23.55
2023-07-24T13:26:53.390Z,23.49
2023-07-24T13:29:19.785Z,23.44
2023-07-24T13:31:46.505Z,23.51
2023-07-24T13:34:13.068Z,23.60
2023-07-24T13:36:39.483Z,23.56
2023-07-24T13:39:05.904Z,23.73
2023-07-24T13:41:33.480Z,23.55
2023-07-24T13:44:00.259Z,23.68
2023-07-24T13:46:26.916Z,23.67
2023-07-24T13:48:53.413Z,23.78
2023-07-24T13:51:20.418Z,23.84
2023-07-24T13:53:49.295Z,23.87
2023-07-24T13:56:15.746Z,23.47
2023-07-24T13:58:42.079Z,23.45
2023-07-24T14:01:08.713Z,23.57
2023-07-24T14:03:35.261Z,23.61
2023-07-24T14:06:01.911Z,23.57
2023-07-24T14:08:28.409Z,23.47
2023-07-24T14:10:54.863Z,23.27
2023-07-24T14:13:21.491Z,23.14
2023-07-24T14:15:47.972Z,23.25
2023-07-24T14:18:14.527Z,23.07
2023-07-24T14:20:41.450Z,22.90
2023-07-24T14:23:08.974Z,22.91
2023-07-24T14:25:35.402Z,22.91
2023-07-24T14:28:01.787Z,22.92
2023-07-24T14:30:28.489Z,22.84
2023-07-24T14:32:54.944Z,22.86
2023-07-24T14:35:21.455Z,22.82
2023-07-24T14:37:48.092Z,22.69
2023-07-24T14:40:14.832Z,22.50
2023-07-24T14:42:42.346Z,22.45
2023-07-24T14:45:11.963Z,22.22
2023-07-24T14:47:38.359Z,22.21
2023-07-24T14:50:05.286Z,22.35
2023-07-24T14:52:31.669Z,22.34
2023-07-24T14:54:58.273Z,22.27
2023-07-24T14:57:26.478Z,22.02
2023-07-24T14:59:53.738Z,22.03
2023-07-24T15:02:20.421Z,22.03
2023-07-24T15:04:46.965Z,21.94
2023-07-24T15:07:13.397Z,22.02
2023-07-24T15:09:40.083Z,21.99
2023-07-24T15:12:06.765Z,21.95
2023-07-24T15:14:33.424Z,21.81
2023-07-24T15:16:59.814Z,21.64
2023-07-24T15:19:26.254Z,21.59
2023-07-24T15:21:52.789Z,21.50
2023-07-24T15:24:19.352Z,21.45
2023-07-24T15:26:46.119Z,21.44
2023-07-24T15:29:13.879Z,21.33
2023-07-24T15:31:41.990Z,21.29
2023-07-24T15:34:09.005Z,21.30
2023-07-24T15:36:37.536Z,21.16
2023-07-24T15:39:05.053Z,21.08
2023-07-24T15:41:32.785Z,21.08
2023-07-24T15:44:00.374Z,20.91
2023-07-24T15:46:29.632Z,19.51
2023-07-24T15:48:57.878Z,17.27
2023-07-24T15:51:26.644Z,16.02
2023-07-24T15:53:54.136Z,15.02
2023-07-24T15:56:21.371Z,14.18
2023-07-24T15:58:48.501Z,14.06
2023-07-24T16:01:15.360Z,13.79
2023-07-24T16:03:42.730Z,14.23
2023-07-24T16:06:10.866Z,14.23
2023-07-24T16:08:38.350Z,14.26
2023-07-24T16:11:09.026Z,14.06
2023-07-24T16:13:40.372Z,13.97
2023-07-24T16:16:07.142Z,14.10
2023-07-24T16:18:33.863Z,14.28
2023-07-24T16:21:03.275Z,14.38
2023-07-24T16:23:30.418Z,14.60
2023-07-24T16:25:56.801Z,14.79
2023-07-24T16:28:23.336Z,14.92
2023-07-24T16:30:50.008Z,15.09
2023-07-24T16:33:23.735Z,15.23
2023-07-24T16:35:50.904Z,15.37
2023-07-24T16:38:17.222Z,15.45
2023-07-24T16:40:43.633Z,15.50
2023-07-24T16:43:10.068Z,15.41
2023-07-24T16:45:37.176Z,15.42
2023-07-24T16:48:04.090Z,15.40
2023-07-24T16:50:30.736Z,15.50
2023-07-24T16:52:57.143Z,15.50
2023-07-24T16:55:23.752Z,15.48
2023-07-24T16:57:50.340Z,15.37
2023-07-24T17:00:17.536Z,15.49
2023-07-24T17:02:43.941Z,15.65
2023-07-24T17:05:10.742Z,15.55
2023-07-24T17:07:37.389Z,15.59
2023-07-24T17:10:04.263Z,15.57
2023-07-24T17:12:31.377Z,15.64
2023-07-24T17:14:57.984Z,15.73
2023-07-24T17:17:24.524Z,15.81
2023-07-24T17:19:51.198Z,15.75
2023-07-24T17:22:17.826Z,15.83
2023-07-24T17:24:44.448Z,15.90
2023-07-24T17:27:11.090Z,15.97
2023-07-24T17:29:37.524Z,16.01
2023-07-24T17:32:04.129Z,15.94
2023-07-24T17:34:30.439Z,15.99
2023-07-24T17:36:56.944Z,16.08
2023-07-24T17:39:23.322Z,16.02
2023-07-24T17:41:49.809Z,16.08
2023-07-24T17:44:16.390Z,15.98
2023-07-24T17:46:42.744Z,16.06
2023-07-24T17:49:09.160Z,15.98
2023-07-24T17:51:35.533Z,15.96
2023-07-24T17:54:02.271Z,15.93
2023-07-24T17:56:28.888Z,15.83
2023-07-24T17:58:55.245Z,15.81
2023-07-24T18:01:22.724Z,15.84
2023-07-24T18:03:49.267Z,15.84
2023-07-24T18:06:15.735Z,15.81
2023-07-24T18:08:42.227Z,15.77
2023-07-24T18:11:08.941Z,15.80
2023-07-24T18:13:35.462Z,15.81
2023-07-24T18:16:02.197Z,15.81
2023-07-24T18:18:28.796Z,15.71
2023-07-24T18:20:55.688Z,15.70
2023-07-24T18:23:22.258Z,15.70
2023-07-24T18:25:48.632Z,15.80
2023-07-24T18:28:17.488Z,15.87
2023-07-24T18:30:43.929Z,15.87
2023-07-24T18:33:11.449Z,15.85
2023-07-24T18:35:38.167Z,15.78
2023-07-24T18:38:04.498Z,15.71
2023-07-24T18:40:31.176Z,15.73
2023-07-24T18:42:57.660Z,15.91
2023-07-24T18:45:24.279Z,15.85
2023-07-24T18:47:50.627Z,15.74
2023-07-24T18:50:17.246Z,15.74
2023-07-24T18:52:43.642Z,15.79
2023-07-24T18:55:10.244Z,15.67
2023-07-24T18:57:36.566Z,15.68
2023-07-24T19:00:03.360Z,15.69
2023-07-24T19:02:30.357Z,15.58
2023-07-24T19:04:57.524Z,15.61
2023-07-24T19:07:23.909Z,15.47
2023-07-24T19:09:50.296Z,15.48
2023-07-24T19:12:17.612Z,15.43
2023-07-24T19:14:44.306Z,15.40
2023-07-24T19:17:10.920Z,15.35
2023-07-24T19:19:39.035Z,15.40
2023-07-24T19:22:05.853Z,15.36
2023-07-24T19:24:32.381Z,15.41
2023-07-24T19:26:59.598Z,15.43
2023-07-24T19:29:26.282Z,15.35
2023-07-24T19:31:53.631Z,15.34
2023-07-24T19:34:20.114Z,15.39
2023-07-24T19:36:46.520Z,15.49
2023-07-24T19:39:13.237Z,15.34
2023-07-24T19:41:39.646Z,15.18
2023-07-24T19:44:06.150Z,15.23
2023-07-24T19:46:32.810Z,15.23
2023-07-24T19:49:00.584Z,15.22
2023-07-24T19:51:27.180Z,15.22
2023-07-24T19:53:53.716Z,15.19
2023-07-24T19:56:20.101Z,15.14
2023-07-24T19:58:46.582Z,15.15
2023-07-24T20:01:13.451Z,15.16
2023-07-24T20:03:40.102Z,15.19
2023-07-24T20:06:08.467Z,15.13
2023-07-24T20:08:36.042Z,15.09
2023-07-24T20:11:06.602Z,15.18
2023-07-24T20:13:33.597Z,15.17
2023-07-24T20:16:00.529Z,15.22
2023-07-24T20:18:27.754Z,15.15
2023-07-24T20:20:54.557Z,15.22
2023-07-24T20:23:21.208Z,15.23
2023-07-24T20:25:51.051Z,15.22
2023-07-24T20:28:25.983Z,15.27
2023-07-24T20:30:52.595Z,15.22
2023-07-24T20:33:19.327Z,15.30
2023-07-24T20:35:47.368Z,15.32
2023-07-24T20:38:25.703Z,15.38
2023-07-24T20:40:52.446Z,15.38
2023-07-24T20:43:18.945Z,15.32
2023-07-24T20:45:45.875Z,15.32
2023-07-24T20:48:12.456Z,15.24
2023-07-24T20:50:40.181Z,15.20
2023-07-24T20:53:07.149Z,15.20
2023-07-24T20:55:33.576Z,15.11
2023-07-24T20:58:00.034Z,15.13
2023-07-24T21:00:26.447Z,15.27
2023-07-24T21:02:53.170Z,15.00
2023-07-24T21:05:19.696Z,14.97
2023-07-24T21:07:46.370Z,14.86
2023-07-24T21:10:13.360Z,14.80
2023-07-24T21:12:41.473Z,14.81
2023-07-24T21:15:08.667Z,14.75
2023-07-24T21:17:35.351Z,14.60
2023-07-24T21:20:01.731Z,14.56
2023-07-24T21:22:28.093Z,14.61
2023-07-24T21:24:54.518Z,14.71
2023-07-24T21:27:21.245Z,14.60
2023-07-24T21:29:47.813Z,14.60
2023-07-24T21:32:14.185Z,14.52
2023-07-24T21:34:40.658Z,14.57
2023-07-24T21:37:07.387Z,14.64
2023-07-24T21:39:33.832Z,14.63
2023-07-24T21:42:00.195Z,14.67
2023-07-24T21:44:26.633Z,14.66
2023-07-24T21:46:53.625Z,14.65
2023-07-24T21:49:19.990Z,14.65
2023-07-24T21:51:46.675Z,14.60
2023-07-24T21:54:13.171Z,14.56
2023-07-24T21:56:39.900Z,14.47
2023-07-24T21:59:06.283Z,14.51
2023-07-24T22:01:33.425Z,14.50
2023-07-24T22:04:00.166Z,14.48
2023-07-24T22:06:26.731Z,14.46
2023-07-24T22:08:53.249Z,14.43
2023-07-24T22:11:19.825Z,14.29
2023-07-24T22:13:47.308Z,14.30
2023-07-24T22:16:14.117Z,14.26
2023-07-24T22:18:40.562Z,14.11
2023-07-24T22:21:06.998Z,14.09
2023-07-24T22:23:33.483Z,14.14
2023-07-24T22:26:01.506Z,14.17
2023-07-24T22:28:27.974Z,14.14
2023-07-24T22:30:54.493Z,14.16
2023-07-24T22:33:20.869Z,14.18
2023-07-24T22:35:47.290Z,14.27
2023-07-24T22:38:13.737Z,14.31
2023-07-24T22:40:40.335Z,14.20
2023-07-24T22:43:06.848Z,14.19
2023-07-24T22:45:33.524Z,14.14
2023-07-24T22:47:59.915Z,14.20
2023-07-24T22:50:26.582Z,14.27
2023-07-24T22:52:52.887Z,14.16
2023-07-24T22:55:19.862Z,14.20
2023-07-24T22:57:46.290Z,14.24
2023-07-24T23:00:13.303Z,14.06
2023-07-24T23:02:39.762Z,14.01
2023-07-24T23:05:06.897Z,13.89
2023-07-24T23:07:33.305Z,13.95
2023-07-24T23:09:59.660Z,13.99
2023-07-24T23:12:26.058Z,13.99
2023-07-24T23:14:52.764Z,14.00
2023-07-24T23:17:19.153Z,14.01
2023-07-24T23:19:46.163Z,13.95
2023-07-24T23:22:12.879Z,13.93
2023-07-24T23:24:39.399Z,13.90
2023-07-24T23:27:06.197Z,13.84
2023-07-24T23:29:32.517Z,13.73
2023-07-24T23:31:58.849Z,13.72
2023-07-24T23:34:25.476Z,13.68
2023-07-24T23:36:52.124Z,13.67
2023-07-24T23:39:18.454Z,13.58
2023-07-24T23:41:44.870Z,13.57
2023-07-24T23:44:11.418Z,13.57
2023-07-24T23:46:40.067Z,13.51
2023-07-24T23:49:06.552Z,13.52
2023-07-24T23:51:33.212Z,13.48
2023-07-24T23:54:00.039Z,13.51
2023-07-24T23:56:26.644Z,13.46
2023-07-24T23:58:53.059Z,13.49
